createdAt,value
2022-07-29T00:00:02.435Z,21.57
2022-07-29T00:02:29.469Z,21.67
2022-07-29T00:04:56.532Z,21.62
2022-07-29T00:07:23.393Z,21.63
2022-07-29T00:09:52.129Z,21.66
2022-07-29T00:12:26.765Z,21.62
2022-07-29T00:14:56.661Z,21.68
2022-07-29T00:17:25.242Z,21.74
2022-07-29T00:19:52.761Z,21.78
2022-07-29T00:22:21.262Z,21.75
2022-07-29T00:24:51.200Z,21.76
2022-07-29T00:27:19.036Z,21.75
2022-07-29T00:29:46.587Z,21.74
2022-07-29T00:32:13.570Z,21.74
2022-07-29T00:34:59.792Z,21.69
2022-07-29T00:37:26.810Z,21.66
2022-07-29T00:39:53.652Z,21.69
2022-07-29T00:42:20.858Z,21.64
2022-07-29T00:44:47.915Z,21.58
2022-07-29T00:47:15.073Z,21.56
2022-07-29T00:49:43.199Z,21.55
2022-07-29T00:52:11.814Z,21.56
2022-07-29T00:54:44.240Z,21.56
2022-07-29T00:57:12.844Z,21.52
2022-07-29T00:59:40.416Z,21.55
2022-07-29T01:02:07.650Z,21.52
2022-07-29T01:04:34.941Z,21.44
2022-07-29T01:07:06.120Z,21.42
2022-07-29T01:09:43.187Z,21.40
2022-07-29T01:12:25.816Z,21.44
2022-07-29T01:14:55.784Z,21.46
2022-07-29T01:17:39.285Z,21.52
2022-07-29T01:21:12.895Z,21.55
2022-07-29T01:24:28.654Z,21.46
2022-07-29T01:27:33.654Z,21.42
2022-07-29T01:30:05.186Z,21.45
2022-07-29T01:32:40.147Z,21.48
2022-07-29T01:35:33.614Z,21.52
2022-07-29T01:38:25.947Z,21.46
2022-07-29T01:40:59.907Z,21.53
2022-07-29T01:43:41.071Z,21.58
2022-07-29T01:46:15.992Z,21.67
2022-07-29T01:48:58.381Z,21.59
2022-07-29T01:52:01.258Z,21.38
2022-07-29T01:54:38.222Z,21.35
2022-07-29T01:57:09.214Z,21.23
2022-07-29T01:59:38.183Z,21.24
2022-07-29T02:02:09.660Z,21.23
2022-07-29T02:04:40.143Z,21.26
2022-07-29T02:07:14.242Z,21.16
2022-07-29T02:09:43.399Z,21.06
2022-07-29T02:12:12.725Z,21.00
2022-07-29T02:14:54.542Z,20.92
2022-07-29T02:17:29.086Z,20.95
2022-07-29T02:20:01.612Z,20.89
2022-07-29T02:22:34.473Z,20.71
2022-07-29T02:25:02.058Z,20.73
2022-07-29T02:27:34.376Z,20.74
2022-07-29T02:30:05.281Z,20.72
2022-07-29T02:32:36.420Z,20.72
2022-07-29T02:35:05.318Z,20.70
2022-07-29T02:37:33.206Z,20.70
2022-07-29T02:40:00.816Z,20.65
2022-07-29T02:42:29.425Z,20.59
2022-07-29T02:44:57.334Z,20.66
2022-07-29T02:47:43.692Z,20.63
2022-07-29T02:50:21.050Z,20.53
2022-07-29T02:53:14.146Z,20.50
2022-07-29T02:56:01.547Z,20.53
2022-07-29T02:58:31.677Z,20.48
2022-07-29T03:01:04.131Z,20.48
2022-07-29T03:03:38.626Z,20.53
2022-07-29T03:06:08.246Z,20.47
2022-07-29T03:08:36.580Z,20.49
2022-07-29T03:11:05.647Z,20.52
2022-07-29T03:13:33.097Z,20.44
2022-07-29T03:16:01.193Z,20.42
2022-07-29T03:18:28.553Z,20.19
2022-07-29T03:20:56.051Z,20.27
2022-07-29T03:23:24.935Z,20.34
2022-07-29T03:25:52.491Z,20.21
2022-07-29T03:28:20.416Z,20.16
2022-07-29T03:30:50.080Z,20.23
2022-07-29T03:33:17.809Z,20.24
2022-07-29T03:35:44.704Z,20.18
2022-07-29T03:38:11.728Z,20.02
2022-07-29T03:40:58.452Z,20.06
2022-07-29T03:43:31.615Z,20.01
2022-07-29T03:46:01.251Z,20.12
2022-07-29T03:48:33.856Z,20.15
2022-07-29T03:51:01.257Z,20.21
2022-07-29T03:53:28.858Z,20.21
2022-07-29T03:56:01.489Z,20.11
2022-07-29T03:58:31.435Z,20.04
2022-07-29T04:00:59.723Z,19.99
2022-07-29T04:03:27.042Z,19.92
2022-07-29T04:06:06.781Z,19.98
2022-07-29T04:08:36.644Z,19.99
2022-07-29T04:11:05.803Z,20.03
2022-07-29T04:13:33.721Z,20.07
2022-07-29T04:16:00.729Z,20.09
2022-07-29T04:18:28.653Z,20.12
2022-07-29T04:20:55.651Z,20.11
2022-07-29T04:23:22.526Z,20.02
2022-07-29T04:25:49.353Z,19.95
2022-07-29T04:28:16.215Z,19.97
2022-07-29T04:30:44.012Z,19.92
2022-07-29T04:33:11.142Z,19.88
2022-07-29T04:35:38.990Z,19.87
2022-07-29T04:38:17.203Z,19.84
2022-07-29T04:40:44.419Z,19.77
2022-07-29T04:43:13.161Z,19.71
2022-07-29T04:45:41.349Z,19.67
2022-07-29T04:48:08.567Z,19.75
2022-07-29T04:50:38.039Z,19.79
2022-07-29T04:53:04.898Z,19.88
2022-07-29T04:55:31.949Z,19.96
2022-07-29T04:57:58.814Z,19.90
2022-07-29T05:00:28.119Z,19.83
2022-07-29T05:03:01.056Z,19.92
2022-07-29T05:05:29.123Z,19.98
2022-07-29T05:07:56.366Z,19.96
2022-07-29T05:10:23.685Z,20.04
2022-07-29T05:12:50.530Z,20.14
2022-07-29T05:15:18.500Z,20.22
2022-07-29T05:17:45.624Z,20.30
2022-07-29T05:20:12.819Z,20.38
2022-07-29T05:22:39.634Z,20.41
2022-07-29T05:25:09.135Z,20.48
2022-07-29T05:27:37.752Z,20.54
2022-07-29T05:30:05.294Z,20.56
2022-07-29T05:32:32.737Z,20.60
2022-07-29T05:34:59.625Z,20.66
2022-07-29T05:37:26.671Z,20.71
2022-07-29T05:39:57.068Z,20.71
2022-07-29T05:42:25.985Z,20.75
2022-07-29T05:44:55.020Z,20.80
2022-07-29T05:47:23.070Z,20.77
2022-07-29T05:49:50.118Z,20.85
2022-07-29T05:52:17.014Z,20.95
2022-07-29T05:54:44.442Z,20.91
2022-07-29T05:57:23.018Z,20.98
2022-07-29T05:59:51.128Z,21.08
2022-07-29T06:02:19.042Z,21.13
2022-07-29T06:04:46.053Z,21.18
2022-07-29T06:07:13.055Z,21.17
2022-07-29T06:09:40.062Z,21.20
2022-07-29T06:12:06.998Z,21.31
2022-07-29T06:14:33.894Z,21.41
2022-07-29T06:17:00.935Z,21.46
2022-07-29T06:19:28.097Z,21.42
2022-07-29T06:21:55.081Z,21.42
2022-07-29T06:24:22.285Z,21.45
2022-07-29T06:26:49.322Z,21.54
2022-07-29T06:29:16.228Z,21.56
2022-07-29T06:31:43.174Z,21.57
2022-07-29T06:34:11.143Z,21.54
2022-07-29T06:36:39.739Z,21.58
2022-07-29T06:39:09.071Z,21.65
2022-07-29T06:41:36.587Z,21.74
2022-07-29T06:44:03.892Z,21.83
2022-07-29T06:46:30.959Z,21.81
2022-07-29T06:48:57.999Z,21.75
2022-07-29T06:51:24.992Z,21.80
2022-07-29T06:53:59.037Z,21.91
2022-07-29T06:56:39.073Z,21.99
2022-07-29T06:59:08.922Z,22.09
2022-07-29T07:01:39.224Z,22.13
2022-07-29T07:04:06.547Z,22.23
2022-07-29T07:06:33.443Z,22.35
2022-07-29T07:09:00.929Z,22.48
2022-07-29T07:11:28.271Z,22.57
2022-07-29T07:13:59.275Z,22.67
2022-07-29T07:16:29.408Z,22.75
2022-07-29T07:18:56.240Z,22.82
2022-07-29T07:21:23.390Z,22.78
2022-07-29T07:23:50.361Z,22.80
2022-07-29T07:26:17.204Z,22.86
2022-07-29T07:28:44.200Z,22.88
2022-07-29T07:31:12.279Z,22.87
2022-07-29T07:33:39.251Z,22.95
2022-07-29T07:36:06.218Z,23.06
2022-07-29T07:38:33.070Z,23.31
2022-07-29T07:41:01.099Z,23.50
2022-07-29T07:43:28.065Z,23.52
2022-07-29T07:45:55.024Z,23.50
2022-07-29T07:48:21.972Z,23.56
2022-07-29T07:50:50.303Z,23.63
2022-07-29T07:53:17.398Z,23.83
2022-07-29T07:56:10.519Z,24.03
2022-07-29T07:58:32.461Z,23.92
2022-07-29T08:00:59.593Z,23.88
2022-07-29T08:03:26.486Z,23.90
2022-07-29T08:05:55.159Z,23.94
2022-07-29T08:08:22.251Z,24.12
2022-07-29T08:10:56.642Z,24.21
2022-07-29T08:13:28.200Z,24.31
2022-07-29T08:16:02.715Z,24.30
2022-07-29T08:18:32.329Z,24.34
2022-07-29T08:21:00.123Z,24.45
2022-07-29T08:23:51.643Z,24.64
2022-07-29T08:26:23.465Z,24.96
2022-07-29T08:28:51.701Z,25.23
2022-07-29T08:31:19.080Z,25.34
2022-07-29T08:33:46.115Z,25.44
2022-07-29T08:36:13.978Z,25.58
2022-07-29T08:38:41.011Z,25.69
2022-07-29T08:41:08.175Z,25.88
2022-07-29T08:43:38.199Z,25.99
2022-07-29T08:46:05.546Z,26.09
2022-07-29T08:48:33.424Z,26.31
2022-07-29T08:51:02.509Z,26.40
2022-07-29T08:53:32.992Z,26.64
2022-07-29T08:56:02.979Z,26.53
2022-07-29T08:58:36.831Z,26.57
2022-07-29T09:01:05.744Z,26.68
2022-07-29T09:03:38.208Z,26.87
2022-07-29T09:06:05.878Z,27.05
2022-07-29T09:08:34.931Z,27.25
2022-07-29T09:11:04.584Z,27.44
2022-07-29T09:13:32.596Z,27.67
2022-07-29T09:15:59.714Z,27.96
2022-07-29T09:18:45.661Z,27.82
2022-07-29T09:21:35.436Z,27.76
2022-07-29T09:24:11.150Z,27.87
2022-07-29T09:26:47.746Z,28.07
2022-07-29T09:29:25.710Z,28.13
2022-07-29T09:31:56.289Z,28.17
2022-07-29T09:34:32.160Z,28.24
2022-07-29T09:36:59.457Z,28.37
2022-07-29T09:39:35.228Z,28.47
2022-07-29T09:42:06.267Z,28.58
2022-07-29T09:44:49.441Z,28.58
2022-07-29T09:47:18.974Z,28.70
2022-07-29T09:49:58.986Z,28.82
2022-07-29T09:52:31.028Z,29.02
2022-07-29T09:55:10.189Z,29.17
2022-07-29T09:57:41.016Z,29.37
2022-07-29T10:00:10.492Z,29.61
2022-07-29T10:02:39.582Z,29.72
2022-07-29T10:05:26.399Z,29.90
2022-07-29T10:07:59.439Z,30.03
2022-07-29T10:10:34.811Z,30.12
2022-07-29T10:13:13.417Z,30.24
2022-07-29T10:15:46.260Z,30.14
2022-07-29T10:18:15.420Z,30.35
2022-07-29T10:20:42.535Z,30.38
2022-07-29T10:23:10.704Z,30.38
2022-07-29T10:25:37.808Z,30.33
2022-07-29T10:28:07.113Z,30.04
2022-07-29T10:30:34.506Z,30.08
2022-07-29T10:33:49.500Z,30.25
2022-07-29T10:36:55.579Z,30.64
2022-07-29T10:40:29.044Z,30.96
2022-07-29T10:43:03.770Z,30.95
2022-07-29T10:45:31.497Z,31.10
2022-07-29T10:48:07.860Z,31.15
2022-07-29T10:51:03.948Z,31.19
2022-07-29T10:53:54.147Z,31.45
2022-07-29T10:56:31.011Z,31.30
2022-07-29T10:59:22.740Z,31.53
2022-07-29T11:01:54.408Z,31.49
2022-07-29T11:04:44.515Z,31.73
2022-07-29T11:07:13.145Z,31.92
2022-07-29T11:09:42.468Z,31.60
2022-07-29T11:12:48.291Z,31.41
2022-07-29T11:15:19.611Z,31.29
2022-07-29T11:17:59.676Z,31.03
2022-07-29T11:20:50.930Z,30.99
2022-07-29T11:23:26.036Z,31.60
2022-07-29T11:26:18.628Z,31.73
2022-07-29T11:29:14.882Z,31.27
2022-07-29T11:31:49.923Z,31.80
2022-07-29T11:34:33.461Z,31.39
2022-07-29T11:37:09.975Z,31.26
2022-07-29T11:39:44.511Z,31.30
2022-07-29T11:42:28.210Z,31.10
2022-07-29T11:45:42.759Z,30.96
2022-07-29T11:48:29.566Z,30.92
2022-07-29T11:51:00.042Z,30.68
2022-07-29T11:53:28.951Z,30.32
2022-07-29T11:56:02.539Z,29.88
2022-07-29T11:58:31.863Z,29.70
2022-07-29T12:01:04.137Z,29.52
2022-07-29T12:03:36.685Z,29.35
2022-07-29T12:09:07.409Z,29.23
2022-07-29T12:11:38.375Z,29.01
2022-07-29T12:14:07.009Z,28.83
2022-07-29T12:16:40.935Z,28.63
2022-07-29T12:19:08.045Z,28.41
2022-07-29T12:21:56.619Z,28.22
2022-07-29T12:24:26.741Z,28.32
2022-07-29T12:26:58.162Z,28.43
2022-07-29T12:29:41.994Z,28.56
2022-07-29T12:32:19.781Z,28.62
2022-07-29T12:34:47.624Z,28.52
2022-07-29T12:37:14.680Z,28.50
2022-07-29T12:39:41.647Z,28.50
2022-07-29T12:42:18.663Z,28.53
2022-07-29T12:44:50.579Z,28.42
2022-07-29T12:47:19.430Z,28.47
2022-07-29T12:49:50.395Z,28.48
2022-07-29T12:52:34.838Z,28.54
2022-07-29T12:55:02.419Z,28.58
2022-07-29T12:57:29.585Z,28.48
2022-07-29T13:00:13.950Z,28.46
2022-07-29T13:02:43.493Z,28.54
2022-07-29T13:05:13.696Z,28.52
2022-07-29T13:07:54.621Z,28.60
2022-07-29T13:10:24.897Z,28.54
2022-07-29T13:13:11.859Z,28.44
2022-07-29T13:15:44.868Z,28.41
2022-07-29T13:18:32.943Z,28.50
2022-07-29T13:21:14.280Z,28.54
2022-07-29T13:23:42.371Z,28.59
2022-07-29T13:26:12.477Z,28.51
2022-07-29T13:29:10.782Z,28.52
2022-07-29T13:31:37.857Z,28.57
2022-07-29T13:34:04.832Z,28.76
2022-07-29T13:36:31.632Z,28.94
2022-07-29T13:38:58.574Z,29.34
2022-07-29T13:41:25.960Z,29.78
2022-07-29T13:43:52.869Z,30.27
2022-07-29T13:46:19.715Z,30.67
2022-07-29T13:48:46.670Z,31.06
2022-07-29T13:51:14.006Z,31.15
2022-07-29T13:53:40.991Z,31.05
2022-07-29T13:56:08.164Z,30.83
2022-07-29T13:58:35.705Z,30.53
2022-07-29T14:01:02.901Z,30.01
2022-07-29T14:03:30.071Z,29.76
2022-07-29T14:05:57.304Z,29.69
2022-07-29T14:08:24.315Z,29.52
2022-07-29T14:10:51.324Z,29.36
2022-07-29T14:13:24.679Z,29.33
2022-07-29T14:15:52.892Z,29.31
2022-07-29T14:18:19.899Z,29.47
2022-07-29T14:20:48.292Z,29.35
2022-07-29T14:23:16.269Z,29.09
2022-07-29T14:25:43.556Z,28.99
2022-07-29T14:28:11.546Z,28.95
2022-07-29T14:30:40.867Z,29.17
2022-07-29T14:33:09.161Z,29.39
2022-07-29T14:35:36.067Z,29.57
2022-07-29T14:38:03.456Z,29.74
2022-07-29T14:40:30.565Z,29.83
2022-07-29T14:42:57.427Z,29.76
2022-07-29T14:45:25.750Z,29.60
2022-07-29T14:47:56.352Z,29.56
2022-07-29T14:50:31.967Z,29.69
2022-07-29T14:53:00.916Z,29.76
2022-07-29T14:55:28.194Z,29.53
2022-07-29T14:58:05.834Z,29.46
2022-07-29T15:00:37.677Z,29.33
2022-07-29T15:03:05.992Z,29.39
2022-07-29T15:05:33.507Z,29.35
2022-07-29T15:08:30.774Z,29.25
2022-07-29T15:11:00.196Z,29.26
2022-07-29T15:13:27.426Z,29.22
2022-07-29T15:15:59.712Z,29.10
2022-07-29T15:18:26.991Z,29.10
2022-07-29T15:20:53.923Z,28.96
2022-07-29T15:23:21.152Z,28.77
2022-07-29T15:25:48.124Z,28.72
2022-07-29T15:28:15.076Z,28.91
2022-07-29T15:30:42.003Z,29.04
2022-07-29T15:33:10.503Z,29.19
2022-07-29T15:35:40.534Z,29.20
2022-07-29T15:38:09.732Z,29.09
2022-07-29T15:40:41.159Z,28.89
2022-07-29T15:43:08.741Z,28.83
2022-07-29T15:46:02.773Z,28.83
2022-07-29T15:48:30.107Z,28.86
2022-07-29T15:50:56.954Z,28.74
2022-07-29T15:53:24.205Z,28.73
2022-07-29T15:55:51.073Z,28.67
2022-07-29T15:58:18.340Z,28.62
2022-07-29T16:00:45.326Z,28.61
2022-07-29T16:03:12.575Z,28.63
2022-07-29T16:05:39.559Z,28.57
2022-07-29T16:08:06.713Z,28.44
2022-07-29T16:10:34.147Z,28.28
2022-07-29T16:13:01.017Z,28.17
2022-07-29T16:15:27.973Z,28.30
2022-07-29T16:17:54.895Z,28.37
2022-07-29T16:20:22.352Z,28.44
2022-07-29T16:22:49.898Z,28.28
2022-07-29T16:25:17.324Z,28.09
2022-07-29T16:27:44.278Z,28.07
2022-07-29T16:30:12.060Z,28.09
2022-07-29T16:32:40.189Z,28.03
2022-07-29T16:35:08.848Z,28.08
2022-07-29T16:37:39.632Z,28.06
2022-07-29T16:40:12.002Z,27.86
2022-07-29T16:42:47.905Z,27.82
2022-07-29T16:45:18.312Z,27.81
2022-07-29T16:47:48.414Z,27.96
2022-07-29T16:50:15.315Z,27.87
2022-07-29T16:52:42.219Z,27.91
2022-07-29T16:55:09.836Z,27.80
2022-07-29T16:57:36.771Z,27.81
2022-07-29T17:00:06.488Z,27.81
2022-07-29T17:02:33.294Z,27.68
2022-07-29T17:05:00.153Z,27.62
2022-07-29T17:07:29.737Z,27.63
2022-07-29T17:10:00.615Z,27.56
2022-07-29T17:12:34.269Z,27.56
2022-07-29T17:15:01.303Z,27.53
2022-07-29T17:17:38.645Z,27.51
2022-07-29T17:20:09.538Z,27.54
2022-07-29T17:22:39.787Z,27.55
2022-07-29T17:25:08.642Z,27.49
2022-07-29T17:27:36.111Z,27.51
2022-07-29T17:30:05.708Z,27.52
2022-07-29T17:32:40.002Z,27.40
2022-07-29T17:35:35.745Z,27.44
2022-07-29T17:38:02.691Z,27.44
2022-07-29T17:40:29.738Z,27.29
2022-07-29T17:42:56.614Z,27.23
2022-07-29T17:45:23.727Z,27.28
2022-07-29T17:47:51.019Z,27.24
2022-07-29T17:50:18.054Z,27.25
2022-07-29T17:52:57.792Z,27.25
2022-07-29T17:55:25.030Z,27.21
2022-07-29T17:57:52.031Z,27.23
2022-07-29T18:00:19.440Z,27.22
2022-07-29T18:02:46.431Z,27.21
2022-07-29T18:05:13.459Z,27.19
2022-07-29T18:07:40.887Z,27.12
2022-07-29T18:10:08.459Z,27.15
2022-07-29T18:12:35.366Z,27.11
2022-07-29T18:15:02.286Z,27.05
2022-07-29T18:17:52.975Z,26.98
2022-07-29T18:20:16.173Z,26.93
2022-07-29T18:22:42.964Z,26.90
2022-07-29T18:25:09.894Z,26.86
2022-07-29T18:27:36.735Z,26.78
2022-07-29T18:30:06.354Z,26.71
2022-07-29T18:32:33.608Z,26.70
2022-07-29T18:35:05.128Z,26.68
2022-07-29T18:38:00.293Z,26.67
2022-07-29T18:40:25.744Z,26.64
2022-07-29T18:42:53.071Z,26.59
2022-07-29T18:45:20.055Z,26.53
2022-07-29T18:47:49.246Z,26.45
2022-07-29T18:50:17.084Z,26.39
2022-07-29T18:52:46.239Z,26.38
2022-07-29T18:55:13.837Z,26.35
2022-07-29T18:57:54.889Z,26.23
2022-07-29T19:00:24.173Z,26.19
2022-07-29T19:02:51.534Z,26.14
2022-07-29T19:05:18.833Z,26.09
2022-07-29T19:07:45.732Z,26.06
2022-07-29T19:10:13.511Z,26.04
2022-07-29T19:12:40.550Z,25.99
2022-07-29T19:15:10.283Z,25.93
2022-07-29T19:17:37.861Z,25.87
2022-07-29T19:20:06.339Z,25.71
2022-07-29T19:22:34.814Z,25.59
2022-07-29T19:25:01.767Z,25.39
2022-07-29T19:27:28.786Z,25.25
2022-07-29T19:29:59.150Z,25.18
2022-07-29T19:32:27.113Z,25.15
2022-07-29T19:35:12.547Z,25.07
2022-07-29T19:37:39.600Z,25.00
2022-07-29T19:40:07.366Z,24.90
2022-07-29T19:42:34.738Z,24.83
2022-07-29T19:45:01.667Z,24.74
2022-07-29T19:47:28.760Z,24.70
2022-07-29T19:49:55.814Z,24.66
2022-07-29T19:52:22.702Z,24.61
2022-07-29T19:54:49.602Z,24.45
2022-07-29T19:57:16.487Z,24.40
2022-07-29T19:59:44.260Z,24.38
2022-07-29T20:02:12.413Z,24.27
2022-07-29T20:04:39.779Z,24.24
2022-07-29T20:07:07.659Z,24.19
2022-07-29T20:09:35.550Z,24.11
2022-07-29T20:12:06.063Z,23.99
2022-07-29T20:14:32.873Z,23.99
2022-07-29T20:17:00.157Z,23.89
2022-07-29T20:19:27.473Z,23.87
2022-07-29T20:21:57.442Z,23.84
2022-07-29T20:24:24.578Z,23.82
2022-07-29T20:26:51.772Z,23.74
2022-07-29T20:29:18.670Z,23.68
2022-07-29T20:31:46.314Z,23.62
2022-07-29T20:34:20.234Z,23.59
2022-07-29T20:36:49.318Z,23.56
2022-07-29T20:39:16.312Z,23.46
2022-07-29T20:41:43.245Z,23.40
2022-07-29T20:44:10.206Z,23.41
2022-07-29T20:46:39.243Z,23.44
2022-07-29T20:49:06.307Z,23.41
2022-07-29T20:51:43.692Z,23.35
2022-07-29T20:54:11.522Z,23.37
2022-07-29T20:56:39.477Z,23.24
2022-07-29T20:59:06.565Z,23.10
2022-07-29T21:01:33.628Z,23.03
2022-07-29T21:04:02.993Z,22.97
2022-07-29T21:06:31.834Z,22.96
2022-07-29T21:08:59.732Z,22.85
2022-07-29T21:11:43.265Z,22.79
2022-07-29T21:14:23.148Z,22.78
2022-07-29T21:16:50.284Z,22.75
2022-07-29T21:19:17.310Z,22.80
2022-07-29T21:21:44.250Z,22.77
2022-07-29T21:24:12.251Z,22.66
2022-07-29T21:26:39.262Z,22.61
2022-07-29T21:29:06.118Z,22.64
2022-07-29T21:31:33.175Z,22.56
2022-07-29T21:34:00.077Z,22.52
2022-07-29T21:39:13.871Z,22.33
2022-07-29T21:41:40.674Z,22.33
2022-07-29T21:44:07.570Z,22.33
2022-07-29T21:46:36.371Z,22.43
2022-07-29T21:49:03.898Z,22.45
2022-07-29T21:51:31.047Z,22.46
2022-07-29T21:53:58.216Z,22.51
2022-07-29T21:56:27.484Z,22.54
2022-07-29T21:58:56.142Z,22.57
2022-07-29T22:01:24.074Z,22.55
2022-07-29T22:03:51.079Z,22.55
2022-07-29T22:06:18.488Z,22.45
2022-07-29T22:08:45.994Z,22.38
2022-07-29T22:11:13.556Z,22.30
2022-07-29T22:13:40.665Z,22.09
2022-07-29T22:16:10.117Z,22.00
2022-07-29T22:18:36.951Z,22.02
2022-07-29T22:21:04.005Z,22.09
2022-07-29T22:23:31.098Z,21.99
2022-07-29T22:25:58.054Z,21.90
2022-07-29T22:28:25.037Z,21.91
2022-07-29T22:30:52.044Z,21.79
2022-07-29T22:33:18.987Z,21.76
2022-07-29T22:35:48.986Z,21.70
2022-07-29T22:38:18.107Z,21.69
2022-07-29T22:40:45.113Z,21.75
2022-07-29T22:43:12.334Z,21.72
2022-07-29T22:45:39.296Z,21.72
2022-07-29T22:48:06.472Z,21.73
2022-07-29T22:50:33.858Z,21.77
2022-07-29T22:53:00.714Z,21.88
2022-07-29T22:55:27.906Z,22.02
2022-07-29T22:57:54.824Z,22.08
2022-07-29T23:00:21.977Z,22.10
2022-07-29T23:02:49.166Z,22.06
2022-07-29T23:05:16.380Z,22.04
2022-07-29T23:07:43.441Z,21.92
2022-07-29T23:10:10.673Z,21.78
2022-07-29T23:12:37.896Z,21.84
2022-07-29T23:15:06.724Z,21.97
2022-07-29T23:17:36.306Z,22.08
2022-07-29T23:20:07.644Z,22.15
2022-07-29T23:22:35.970Z,22.13
2022-07-29T23:25:04.032Z,21.96
2022-07-29T23:27:30.986Z,21.88
2022-07-29T23:29:57.918Z,21.89
2022-07-29T23:32:24.887Z,21.88
2022-07-29T23:34:51.808Z,21.97
2022-07-29T23:37:18.697Z,21.89
2022-07-29T23:39:45.600Z,21.85
2022-07-29T23:42:12.685Z,21.80
2022-07-29T23:44:39.596Z,21.79
2022-07-29T23:47:06.610Z,21.73
2022-07-29T23:49:34.278Z,21.84
2022-07-29T23:52:01.248Z,21.87
2022-07-29T23:54:28.252Z,21.94
2022-07-29T23:56:57.512Z,21.91
2022-07-29T23:59:25.202Z,21.94
